Time;durP1;ratioP1;P1;durP2;ratioP2;P2;SDS_P1;SDS_P2;PMS_P1;PMS_P2;Temp;Humidity;BMP_temperature;BMP_pressure;BME280_temperature;BME280_humidity;BME280_pressure;Samples;Min_cycle;Max_cycle;Signal;HPM_P1;HPM_P2
2022/09/19 00:01:11;;;;;;;0.10;0.10;;;;;;;6.50;100.00;96468.69;5059687;28;20064;-75
2022/09/19 00:03:42;;;;;;;0.10;0.10;;;;;;;6.53;100.00;96469.03;5057147;28;20024;-76
2022/09/19 00:06:09;;;;;;;;;;;;;;;6.49;100.00;96475.84;5056295;28;20497;-75
2022/09/19 00:08:39;;;;;;;0.10;0.10;;;;;;;6.56;100.00;96465.97;5058062;28;19908;-75
2022/09/19 00:11:06;;;;;;;0.10;0.10;;;;;;;6.58;100.00;96473.72;5060487;28;20510;-75
2022/09/19 00:13:34;;;;;;;0.10;0.10;;;;;;;6.51;100.00;96473.78;5056961;28;20052;-75
2022/09/19 00:16:00;;;;;;;0.10;0.10;;;;;;;6.55;100.00;96479.47;5040697;28;20048;-76
2022/09/19 00:18:27;;;;;;;0.17;0.17;;;;;;;6.50;100.00;96461.53;5058068;28;20081;-76
2022/09/19 00:20:53;;;;;;;0.10;0.10;;;;;;;6.53;100.00;96463.72;5058339;28;20353;-76
2022/09/19 00:26:06;;;;;;;0.10;0.10;;;;;;;6.52;100.00;96472.75;5055920;28;20124;-76
2022/09/19 00:28:32;;;;;;;0.10;0.10;;;;;;;6.50;100.00;96471.34;5056864;28;20062;-76
2022/09/19 00:30:59;;;;;;;0.10;0.10;;;;;;;6.50;100.00;96458.06;5058125;28;20250;-76
2022/09/19 00:33:30;;;;;;;0.10;0.10;;;;;;;6.53;100.00;96484.19;5058432;28;20056;-76
2022/09/19 00:35:58;;;;;;;0.10;0.10;;;;;;;6.51;100.00;96481.75;5044304;28;20510;-76
2022/09/19 00:38:26;;;;;;;0.10;0.10;;;;;;;6.53;100.00;96468.25;5057504;28;20384;-76
2022/09/19 00:40:51;;;;;;;0.10;0.10;;;;;;;6.53;100.00;96471.69;5058942;28;20055;-76
2022/09/19 00:43:19;;;;;;;0.10;0.10;;;;;;;6.57;100.00;96466.78;5045282;28;20052;-76
2022/09/19 00:45:45;;;;;;;0.03;0.03;;;;;;;6.57;100.00;96466.78;5056742;28;20439;-76
2022/09/19 00:48:17;;;;;;;0.10;0.10;;;;;;;6.56;100.00;96459.84;5057822;28;20047;-76
2022/09/19 00:50:48;;;;;;;0.10;0.10;;;;;;;6.57;100.00;96469.44;5039498;28;20025;-76
2022/09/19 00:53:19;;;;;;;0.10;0.10;;;;;;;6.56;100.00;96465.16;5041871;28;20714;-76
2022/09/19 00:55:45;;;;;;;0.10;0.10;;;;;;;6.62;100.00;96467.75;5044115;28;20094;-76
2022/09/19 00:58:50;;;;;;;0.10;0.10;;;;;;;6.65;100.00;96469.13;5056588;28;20365;-76
2022/09/19 01:01:16;;;;;;;0.10;0.10;;;;;;;6.69;100.00;96487.09;4946941;28;20321;-76
2022/09/19 01:03:45;;;;;;;0.10;0.10;;;;;;;6.58;100.00;96471.06;4935958;28;20328;-76
2022/09/19 01:06:35;;;;;;;0.10;0.10;;;;;;;6.61;100.00;96478.56;4979727;28;20572;-77
2022/09/19 01:09:55;;;;;;;0.10;0.10;;;;;;;6.59;100.00;96485.97;5058825;28;20241;-76
2022/09/19 01:12:58;;;;;;;0.10;0.10;;;;;;;6.57;100.00;96491.50;4955680;28;20047;-76
2022/09/19 01:15:39;;;;;;;0.10;0.10;;;;;;;6.59;100.00;96488.63;5055028;28;20483;-76
2022/09/19 01:18:07;;;;;;;0.10;0.10;;;;;;;6.60;100.00;96495.56;5057348;28;20032;-76
2022/09/19 01:23:58;;;;;;;0.10;0.10;;;;;;;6.59;100.00;96496.59;5022316;28;20378;-76
2022/09/19 01:27:05;;;;;;;0.10;0.10;;;;;;;6.60;100.00;96499.03;5036842;28;20032;-75
2022/09/19 01:30:00;;;;;;;0.10;0.10;;;;;;;6.67;100.00;96498.97;5026883;28;20047;-74
2022/09/19 01:32:33;;;;;;;0.10;0.10;;;;;;;6.66;100.00;96510.63;5042921;28;20800;-74
2022/09/19 01:35:04;;;;;;;0.10;0.10;;;;;;;6.66;100.00;96502.66;5042727;28;20028;-74
2022/09/19 01:38:03;;;;;;;0.10;0.10;;;;;;;6.59;100.00;96504.56;5058271;28;20084;-74
2022/09/19 01:40:31;;;;;;;0.10;0.10;;;;;;;6.62;100.00;96520.09;5031606;28;20037;-74
2022/09/19 01:43:00;;;;;;;0.10;0.10;;;;;;;6.55;100.00;96506.88;5034976;28;20047;-74
2022/09/19 01:45:32;;;;;;;0.10;0.10;;;;;;;6.59;100.00;96504.56;5043936;28;21617;-75
2022/09/19 01:48:18;;;;;;;0.10;0.10;;;;;;;6.65;100.00;96517.81;5046057;28;20037;-74
2022/09/19 01:50:50;;;;;;;0.10;0.10;;;;;;;6.67;100.00;96504.28;5041993;28;20115;-74
2022/09/19 01:53:29;;;;;;;0.13;0.13;;;;;;;6.66;100.00;96510.63;5047048;28;20035;-75
2022/09/19 01:56:41;;;;;;;0.10;0.10;;;;;;;6.66;100.00;96521.28;5054501;28;20036;-74
2022/09/19 01:59:37;;;;;;;0.10;0.10;;;;;;;6.62;100.00;96514.78;5030546;28;20483;-75
2022/09/19 02:02:24;;;;;;;0.10;0.10;;;;;;;6.60;100.00;96508.84;5051306;28;20119;-74
2022/09/19 02:05:00;;;;;;;0.17;0.13;;;;;;;6.61;100.00;96508.63;5043857;28;20051;-74
2022/09/19 02:07:42;;;;;;;0.10;0.10;;;;;;;6.62;100.00;96514.78;5060638;28;21059;-75
2022/09/19 02:10:46;;;;;;;0.10;0.10;;;;;;;6.65;100.00;96523.13;5060520;28;20056;-75
2022/09/19 02:13:17;;;;;;;0.10;0.10;;;;;;;6.57;100.00;96519.94;5027600;28;20127;-75
2022/09/19 02:15:53;;;;;;;0.10;0.10;;;;;;;6.58;100.00;96526.88;5042869;28;20028;-75
2022/09/19 02:18:29;;;;;;;0.10;0.10;;;;;;;6.62;100.00;96520.09;5032198;28;20485;-75
2022/09/19 02:21:02;;;;;;;0.10;0.10;;;;;;;6.62;100.00;96525.41;5048757;28;20325;-75
2022/09/19 02:23:32;;;;;;;0.10;0.10;;;;;;;6.66;100.00;96531.91;5060898;28;20036;-74
2022/09/19 02:26:02;;;;;;;0.10;0.10;;;;;;;6.65;100.00;96535.59;5062921;28;20107;-74
2022/09/19 02:28:38;;;;;;;0.10;0.10;;;;;;;6.67;100.00;96546.81;5031072;28;20145;-75
2022/09/19 02:31:07;;;;;;;0.10;0.10;;;;;;;6.69;100.00;96542.09;5033046;28;20505;-75
2022/09/19 02:33:37;;;;;;;0.00;0.00;;;;;;;6.67;100.00;96542.31;5029561;28;20391;-75
2022/09/19 02:36:18;;;;;;;0.00;0.00;;;;;;;6.69;100.00;96544.75;5063184;28;20290;-75
2022/09/19 02:39:05;;;;;;;0.10;0.10;;;;;;;6.73;100.00;96551.25;5059772;28;20101;-75
2022/09/19 02:42:04;;;;;;;0.10;0.10;;;;;;;6.76;100.00;96553.47;5052240;28;20040;-75
2022/09/19 02:45:05;;;;;;;0.10;0.10;;;;;;;6.77;100.00;96549.81;5042508;28;20150;-75
2022/09/19 02:47:45;;;;;;;0.10;0.10;;;;;;;6.77;100.00;96543.63;5046959;28;20028;-75
2022/09/19 02:50:24;;;;;;;0.10;0.10;;;;;;;6.74;100.00;96550.22;5019248;28;20029;-75
2022/09/19 02:52:55;;;;;;;0.10;0.10;;;;;;;6.73;100.00;96548.59;5047782;28;20092;-75
2022/09/19 02:55:29;;;;;;;0.10;0.10;;;;;;;6.64;100.00;96571.22;5044043;28;20288;-75
2022/09/19 02:58:02;;;;;;;0.10;0.10;;;;;;;6.74;100.00;96568.03;5045474;28;20082;-75
2022/09/19 03:00:32;;;;;;;0.10;0.10;;;;;;;6.74;100.00;96571.50;5026100;28;20024;-74
2022/09/19 03:04:11;;;;;;;0.10;0.10;;;;;;;6.68;100.00;96567.06;5043718;28;20311;-75
2022/09/19 03:06:00;;;;;;;0.10;0.10;;;;;;;6.78;100.00;96579.88;5041712;28;20045;-75
2022/09/19 03:08:35;;;;;;;0.10;0.10;;;;;;;6.81;100.00;96577.56;5012376;28;20770;-75
2022/09/19 03:11:06;;;;;;;0.10;0.10;;;;;;;6.83;100.00;96575.50;5044492;28;20060;-74
2022/09/19 03:13:38;;;;;;;0.10;0.10;;;;;;;6.82;100.00;96584.50;5058583;28;20055;-74
2022/09/19 03:16:13;;;;;;;0.10;0.10;;;;;;;6.87;100.00;96576.69;5047096;28;20032;-74
2022/09/19 03:18:45;;;;;;;0.10;0.10;;;;;;;6.92;100.00;96579.47;5055833;28;20119;-75
2022/09/19 03:21:12;;;;;;;0.10;0.10;;;;;;;6.96;100.00;96579.84;5038926;28;20029;-75
2022/09/19 03:23:45;;;;;;;0.10;0.10;;;;;;;6.90;100.00;96578.88;5048080;28;20071;-75
2022/09/19 03:26:25;;;;;;;0.17;0.17;;;;;;;6.92;100.00;96568.03;5047832;28;20032;-75
2022/09/19 03:28:54;;;;;;;0.10;0.10;;;;;;;6.90;100.00;96584.22;5058215;28;20064;-74
2022/09/19 03:31:19;;;;;;;0.10;0.10;;;;;;;6.95;100.00;96584.38;5058138;28;20078;-74
2022/09/19 03:33:46;;;;;;;0.10;0.10;;;;;;;6.95;100.00;96587.03;5027911;28;20558;-74
2022/09/19 03:36:12;;;;;;;0.10;0.10;;;;;;;7.00;100.00;96586.34;5043222;28;20479;-75
2022/09/19 03:38:44;;;;;;;0.10;0.10;;;;;;;7.01;100.00;96597.81;5044593;28;20382;-74
2022/09/19 03:41:19;;;;;;;0.10;0.10;;;;;;;7.01;100.00;96593.31;5046311;28;20036;-74
2022/09/19 03:43:45;;;;;;;0.10;0.10;;;;;;;7.05;100.00;96601.66;5021534;28;20366;-74
2022/09/19 03:46:15;;;;;;;0.10;0.10;;;;;;;7.01;100.00;96595.97;5029199;28;20115;-74
2022/09/19 03:48:46;;;;;;;0.10;0.10;;;;;;;6.98;100.00;96599.88;4998250;28;20091;-75
2022/09/19 03:51:13;;;;;;;0.10;0.10;;;;;;;7.03;100.00;96603.72;5040890;28;20044;-75
2022/09/19 03:53:41;;;;;;;0.10;0.10;;;;;;;6.98;100.00;96607.84;5059278;28;20039;-75
2022/09/19 03:56:06;;;;;;;0.10;0.10;;;;;;;6.98;100.00;96615.03;5041871;28;20032;-75
2022/09/19 03:58:35;;;;;;;0.10;0.10;;;;;;;6.96;100.00;96620.56;5041990;28;20127;-75
2022/09/19 04:01:02;;;;;;;0.10;0.10;;;;;;;6.94;100.00;96613.84;5029277;28;20036;-74
2022/09/19 04:03:27;;;;;;;0.10;0.10;;;;;;;7.01;100.00;96619.13;5041133;28;20565;-75
2022/09/19 04:05:54;;;;;;;0.10;0.10;;;;;;;6.98;100.00;96612.38;5047754;28;20044;-74
2022/09/19 04:08:21;;;;;;;0.10;0.10;;;;;;;6.96;100.00;96622.44;5045676;28;20055;-74
2022/09/19 04:10:51;;;;;;;0.10;0.10;;;;;;;6.96;100.00;96617.91;5047583;28;20559;-75
2022/09/19 04:13:16;;;;;;;0.10;0.10;;;;;;;6.94;100.00;96620.00;5059794;28;20099;-75
2022/09/19 04:15:44;;;;;;;0.10;0.10;;;;;;;6.99;100.00;96628.09;5047175;28;20123;-76
2022/09/19 04:18:11;;;;;;;0.13;0.13;;;;;;;6.99;100.00;96625.44;5047993;28;20107;-75
2022/09/19 04:20:38;;;;;;;0.10;0.10;;;;;;;6.97;100.00;96626.72;5046430;28;20609;-75
2022/09/19 04:23:26;;;;;;;0.10;0.10;;;;;;;6.91;100.00;96631.06;5059491;28;20029;-77
2022/09/19 04:26:00;;;;;;;0.10;0.10;;;;;;;6.84;100.00;96635.63;5048559;28;20107;-76
2022/09/19 04:28:38;;;;;;;0.10;0.10;;;;;;;6.93;100.00;96634.34;5031176;28;20524;-76
2022/09/19 04:31:08;;;;;;;0.00;0.00;;;;;;;6.95;100.00;96634.91;5027166;28;20413;-76
2022/09/19 04:33:34;;;;;;;0.10;0.10;;;;;;;7.04;100.00;96643.41;5045609;28;20059;-76
2022/09/19 04:36:01;;;;;;;0.10;0.10;;;;;;;7.03;100.00;96649.78;5045497;28;20086;-75
2022/09/19 04:38:30;;;;;;;0.00;0.00;;;;;;;7.03;100.00;96647.13;5044257;28;20037;-76
2022/09/19 04:40:56;;;;;;;0.00;0.00;;;;;;;7.07;100.00;96644.81;5047979;28;20201;-75
2022/09/19 04:43:26;;;;;;;0.10;0.10;;;;;;;7.06;100.00;96648.50;5046821;28;20025;-76
2022/09/19 04:46:21;;;;;;;0.10;0.10;;;;;;;7.09;100.00;96653.41;5033599;28;20089;-76
2022/09/19 04:48:48;;;;;;;0.10;0.10;;;;;;;7.05;100.00;96658.34;5045787;28;20421;-76
2022/09/19 04:51:18;;;;;;;0.10;0.10;;;;;;;7.02;100.00;96648.16;5044223;28;20143;-75
2022/09/19 04:53:44;;;;;;;0.10;0.10;;;;;;;7.05;100.00;96655.69;5042667;28;20044;-75
2022/09/19 04:56:11;;;;;;;0.10;0.10;;;;;;;7.07;100.00;96666.09;5025585;28;20047;-75
2022/09/19 04:58:40;;;;;;;0.10;0.10;;;;;;;7.06;100.00;96659.16;5041444;28;20028;-75
2022/09/19 05:01:09;;;;;;;0.10;0.10;;;;;;;7.05;100.00;96668.19;5046719;28;20344;-75
2022/09/19 05:03:36;;;;;;;0.10;0.10;;;;;;;7.11;100.00;96665.44;5032523;28;20043;-75
2022/09/19 05:06:02;;;;;;;0.10;0.10;;;;;;;7.10;100.00;96677.13;5062775;28;20071;-75
2022/09/19 05:08:32;;;;;;;0.05;0.05;;;;;;;7.08;100.00;96668.56;5040465;28;20375;-75
2022/09/19 05:11:11;;;;;;;0.10;0.10;;;;;;;7.09;100.00;96672.84;5027422;28;20537;-76
2022/09/19 05:13:38;;;;;;;0.10;0.10;;;;;;;7.13;100.00;96682.00;5040691;28;20044;-75
2022/09/19 05:16:04;;;;;;;0.10;0.10;;;;;;;7.11;100.00;96677.94;4997790;28;20024;-75
2022/09/19 05:18:35;;;;;;;0.10;0.10;;;;;;;7.09;100.00;96685.34;5043787;28;20556;-75
2022/09/19 05:21:06;;;;;;;0.10;0.10;;;;;;;7.09;100.00;96690.66;5042496;28;20077;-75
2022/09/19 05:23:33;;;;;;;0.10;0.10;;;;;;;7.08;100.00;96692.50;5044542;28;20654;-75
2022/09/19 05:26:05;;;;;;;0.10;0.10;;;;;;;7.08;100.00;96689.00;5044004;28;20036;-75
2022/09/19 05:28:31;;;;;;;0.10;0.10;;;;;;;7.12;100.00;96706.19;5044101;28;20032;-75
2022/09/19 05:30:59;;;;;;;0.10;0.10;;;;;;;7.05;100.00;96700.91;5059145;28;20191;-75
2022/09/19 05:33:27;;;;;;;0.10;0.10;;;;;;;7.06;100.00;96707.88;5041696;28;20040;-75
2022/09/19 05:35:59;;;;;;;0.10;0.10;;;;;;;7.11;100.00;96705.38;5044611;28;20021;-75
2022/09/19 05:38:39;;;;;;;0.10;0.10;;;;;;;7.13;100.00;96702.47;5043091;28;20052;-75
2022/09/19 05:41:38;;;;;;;0.10;0.10;;;;;;;7.12;100.00;96714.16;5044565;28;20318;-75
2022/09/19 05:44:14;;;;;;;0.10;0.10;;;;;;;7.12;100.00;96707.00;5059091;28;20560;-75
2022/09/19 05:46:40;;;;;;;0.17;0.17;;;;;;;7.11;100.00;96715.19;5058329;28;20494;-75
2022/09/19 05:49:06;;;;;;;0.10;0.10;;;;;;;7.09;100.00;96714.63;5042954;28;20075;-74
2022/09/19 05:51:32;;;;;;;0.10;0.10;;;;;;;7.11;100.00;96724.00;5026054;28;20506;-75
2022/09/19 05:53:59;;;;;;;0.10;0.10;;;;;;;7.07;100.00;96729.97;5043453;28;20315;-75
2022/09/19 05:56:33;;;;;;;0.05;0.05;;;;;;;7.10;100.00;96729.53;5057225;28;20036;-75
2022/09/19 05:59:01;;;;;;;0.10;0.10;;;;;;;7.11;100.00;96721.34;5059821;28;20039;-75
2022/09/19 06:01:27;;;;;;;0.10;0.10;;;;;;;7.13;100.00;96723.78;5045619;28;20456;-76
2022/09/19 06:03:54;;;;;;;0.10;0.10;;;;;;;7.14;100.00;96726.22;5045242;28;20040;-75
2022/09/19 06:06:20;;;;;;;0.10;0.10;;;;;;;7.12;100.00;96740.78;5043769;28;20671;-75
2022/09/19 06:08:56;;;;;;;0.10;0.10;;;;;;;7.10;100.00;96730.34;5045946;28;20660;-75
2022/09/19 06:11:21;;;;;;;0.25;0.10;;;;;;;7.18;100.00;96742.56;5058388;28;20052;-75
2022/09/19 06:16:36;;;;;;;0.10;0.10;;;;;;;7.24;100.00;96731.84;5042683;28;20046;-75
2022/09/19 06:19:16;;;;;;;;;;;;;;;7.30;100.00;96735.47;5064488;28;20106;-75
2022/09/19 06:21:43;;;;;;;0.10;0.10;;;;;;;7.27;100.00;96741.25;5045037;28;20403;-75
2022/09/19 06:24:09;;;;;;;0.10;0.10;;;;;;;7.26;100.00;96740.44;5046594;28;20040;-75
2022/09/19 06:26:34;;;;;;;0.10;0.10;;;;;;;7.32;100.00;96744.06;5044341;28;20039;-75
2022/09/19 06:29:01;;;;;;;0.10;0.10;;;;;;;7.43;100.00;96745.97;5032107;28;20043;-75
2022/09/19 06:31:30;;;;;;;0.10;0.10;;;;;;;7.48;100.00;96742.66;5049519;28;20040;-76
2022/09/19 06:34:07;;;;;;;0.10;0.10;;;;;;;7.51;100.00;96743.03;5046638;28;20029;-75
2022/09/19 06:36:37;;;;;;;0.10;0.10;;;;;;;7.51;100.00;96743.03;5064132;28;20086;-75
2022/09/19 06:39:04;;;;;;;0.10;0.10;;;;;;;7.44;100.00;96752.13;5065444;28;20493;-75
2022/09/19 06:41:38;;;;;;;0.10;0.10;;;;;;;7.43;100.00;96761.16;5046788;28;20099;-75
2022/09/19 06:44:10;;;;;;;0.10;0.10;;;;;;;7.42;100.00;96756.84;5062095;28;20651;-75
2022/09/19 06:46:54;;;;;;;0.10;0.10;;;;;;;7.44;100.00;96757.44;5065238;28;20075;-75
2022/09/19 06:49:33;;;;;;;0.10;0.10;;;;;;;7.40;100.00;96765.06;5064336;28;20039;-75
2022/09/19 06:52:34;;;;;;;0.10;0.10;;;;;;;7.49;100.00;96769.06;5053976;28;20163;-75
2022/09/19 06:55:03;;;;;;;0.10;0.10;;;;;;;7.51;100.00;96767.00;5049269;28;20076;-75
2022/09/19 06:57:30;;;;;;;0.10;0.10;;;;;;;7.52;100.00;96770.47;5024068;28;20028;-75
2022/09/19 06:59:55;;;;;;;0.17;0.13;;;;;;;7.53;100.00;96772.09;5035005;28;20051;-75
2022/09/19 07:02:21;;;;;;;0.10;0.10;;;;;;;7.59;100.00;96770.41;5063458;28;20075;-75
2022/09/19 07:04:48;;;;;;;0.10;0.10;;;;;;;7.64;100.00;96775.88;5029043;28;20449;-75
2022/09/19 07:07:31;;;;;;;0.10;0.10;;;;;;;7.66;100.00;96774.63;5044748;28;20573;-76
2022/09/19 07:09:58;;;;;;;0.10;0.10;;;;;;;7.68;100.00;96779.72;5048330;28;20050;-75
2022/09/19 07:12:23;;;;;;;0.10;0.10;;;;;;;7.74;100.00;96784.16;5043126;28;20125;-75
2022/09/19 07:14:53;;;;;;;0.10;0.10;;;;;;;7.74;100.00;96784.97;5045152;28;20140;-75
2022/09/19 07:17:18;;;;;;;0.10;0.10;;;;;;;7.79;100.00;96779.00;5064126;28;20040;-75
2022/09/19 07:19:47;;;;;;;0.10;0.10;;;;;;;7.72;100.00;96787.06;5041259;28;20351;-75
2022/09/19 07:22:27;;;;;;;0.10;0.10;;;;;;;7.66;100.00;96787.13;5046965;28;20047;-76
2022/09/19 07:25:15;;;;;;;0.20;0.20;;;;;;;7.70;100.00;96801.59;5055318;28;20455;-75
2022/09/19 07:27:58;;;;;;;0.10;0.10;;;;;;;7.70;100.00;96801.59;5028632;28;20111;-75
2022/09/19 07:30:25;;;;;;;0.10;0.10;;;;;;;7.70;100.00;96804.28;5060589;28;20049;-76
2022/09/19 07:32:57;;;;;;;0.10;0.10;;;;;;;7.75;100.00;96807.09;5017140;28;20040;-75
2022/09/19 07:35:25;;;;;;;0.10;0.10;;;;;;;7.80;100.00;96808.06;5042400;28;20041;-75
2022/09/19 07:37:52;;;;;;;0.10;0.10;;;;;;;7.78;100.00;96812.81;5049287;28;20069;-75
2022/09/19 07:40:37;;;;;;;0.00;0.00;;;;;;;7.77;100.00;96816.47;5059875;28;20042;-75
2022/09/19 07:43:05;;;;;;;0.10;0.10;;;;;;;7.79;100.00;96819.75;5008579;28;20048;-75
2022/09/19 07:46:06;;;;;;;0.10;0.10;;;;;;;7.86;100.00;96832.19;5040247;28;20066;-76
2022/09/19 07:48:42;;;;;;;0.10;0.10;;;;;;;7.92;100.00;96828.63;5055628;28;20021;-75
2022/09/19 07:51:35;;;;;;;0.10;0.10;;;;;;;7.87;100.00;96837.31;5057467;28;20522;-76
2022/09/19 07:54:01;;;;;;;0.10;0.10;;;;;;;7.90;100.00;96836.84;5027042;28;20025;-75
2022/09/19 07:56:27;;;;;;;0.00;0.00;;;;;;;7.90;100.00;96836.84;5054673;28;20115;-75
2022/09/19 07:58:58;;;;;;;0.10;0.10;;;;;;;8.06;100.00;96848.75;5031840;28;20383;-75
2022/09/19 08:01:29;;;;;;;0.10;0.10;;;;;;;8.13;100.00;96840.69;5039632;28;21249;-75
2022/09/19 08:04:07;;;;;;;0.10;0.10;;;;;;;8.23;100.00;96849.78;5015790;28;20083;-75
2022/09/19 08:06:44;;;;;;;0.10;0.10;;;;;;;8.36;100.00;96851.50;5046666;28;20040;-74
2022/09/19 08:09:10;;;;;;;0.10;0.10;;;;;;;8.45;100.00;96857.34;5049916;28;20283;-75
2022/09/19 08:11:55;;;;;;;0.10;0.10;;;;;;;8.45;100.00;96857.34;5029988;28;20075;-74
2022/09/19 08:14:24;;;;;;;0.10;0.10;;;;;;;8.36;100.00;96857.66;4998087;28;20039;-74
2022/09/19 08:16:50;;;;;;;0.10;0.10;;;;;;;8.35;100.00;96869.38;4988034;28;20891;-75
2022/09/19 08:19:16;;;;;;;0.10;0.10;;;;;;;8.45;100.00;96860.03;5006960;28;20029;-74
2022/09/19 08:21:42;;;;;;;0.10;0.10;;;;;;;8.47;100.00;96861.41;5035391;28;20404;-74
2022/09/19 08:24:07;;;;;;;0.10;0.10;;;;;;;8.41;100.00;96867.66;5037430;28;20029;-74
2022/09/19 08:26:33;;;;;;;0.10;0.10;;;;;;;8.40;100.00;96866.00;5016576;28;20407;-74
2022/09/19 08:29:00;;;;;;;0.10;0.10;;;;;;;8.43;100.00;96873.59;5018850;28;20044;-75
2022/09/19 08:31:30;;;;;;;0.10;0.10;;;;;;;8.46;100.00;96872.31;5033452;28;20066;-75
2022/09/19 08:33:56;;;;;;;0.38;0.20;;;;;;;8.49;100.00;96875.34;5020446;28;20056;-75
2022/09/19 08:36:21;;;;;;;0.10;0.10;;;;;;;8.46;100.00;96872.31;5034035;28;20168;-75
2022/09/19 08:38:50;;;;;;;0.10;0.10;;;;;;;8.45;100.00;96876.81;5013421;28;20326;-75
2022/09/19 08:41:40;;;;;;;0.10;0.10;;;;;;;8.56;100.00;96881.41;5029124;28;20207;-75
2022/09/19 08:44:24;;;;;;;0.10;0.10;;;;;;;8.59;100.00;96886.28;5016023;28;20254;-74
2022/09/19 08:47:13;;;;;;;0.10;0.10;;;;;;;8.59;100.00;96888.16;5016311;28;20112;-74
2022/09/19 08:49:48;;;;;;;0.10;0.10;;;;;;;8.64;100.00;96889.13;5016025;28;20067;-74
2022/09/19 08:52:27;;;;;;;0.10;0.10;;;;;;;8.70;100.00;96889.22;5000170;28;20033;-74
2022/09/19 08:54:57;;;;;;;0.10;0.10;;;;;;;8.79;100.00;96887.88;5013058;28;20562;-75
2022/09/19 08:57:45;;;;;;;0.20;0.20;;;;;;;8.90;100.00;96892.44;5034227;28;20083;-74
2022/09/19 09:00:18;;;;;;;0.20;0.20;;;;;;;9.07;100.00;96893.44;4955799;28;20033;-74
2022/09/19 09:02:51;;;;;;;0.32;0.20;;;;;;;9.48;100.00;96876.53;4990929;28;20028;-74
2022/09/19 09:05:55;;;;;;;0.35;0.20;;;;;;;9.59;100.00;96882.94;4969993;28;20044;-74
2022/09/19 09:08:33;;;;;;;0.17;0.17;;;;;;;9.72;100.00;96881.91;5032974;28;20033;-74
2022/09/19 09:11:26;;;;;;;0.10;0.10;;;;;;;9.98;100.00;96881.44;5015906;28;20132;-74
2022/09/19 09:14:38;;;;;;;0.28;0.20;;;;;;;10.08;100.00;96872.00;4996366;28;20428;-74
2022/09/19 09:17:25;;;;;;;0.10;0.10;;;;;;;10.02;100.00;96869.22;5019281;28;20029;-74
2022/09/19 09:20:00;;;;;;;0.20;0.15;;;;;;;9.97;100.00;96877.13;5016886;28;20376;-74
2022/09/19 09:22:39;;;;;;;0.10;0.10;;;;;;;10.10;100.00;96878.72;5016555;28;20042;-74
2022/09/19 09:25:35;;;;;;;0.10;0.10;;;;;;;10.15;100.00;96878.84;5016323;28;20045;-75
2022/09/19 09:28:27;;;;;;;0.10;0.10;;;;;;;10.28;100.00;96869.78;5014813;28;20037;-75
2022/09/19 09:31:34;;;;;;;0.20;0.10;;;;;;;10.62;100.00;96875.28;4989533;28;20084;-74
2022/09/19 09:34:28;;;;;;;0.25;0.20;;;;;;;10.84;100.00;96874.38;5014696;28;20060;-75
2022/09/19 09:37:03;;;;;;;0.10;0.10;;;;;;;11.34;100.00;96867.44;5016092;28;20560;-75
2022/09/19 09:39:58;;;;;;;0.10;0.10;;;;;;;11.33;100.00;96866.63;5016749;28;20224;-75
2022/09/19 09:42:40;;;;;;;0.20;0.20;;;;;;;11.15;100.00;96866.88;5031054;28;20080;-74
2022/09/19 09:45:40;;;;;;;0.20;0.20;;;;;;;11.28;100.00;96863.88;5016662;28;20053;-75
2022/09/19 09:48:08;;;;;;;0.20;0.20;;;;;;;11.34;100.00;96865.56;5018267;28;20049;-75
2022/09/19 09:50:49;;;;;;;0.10;0.10;;;;;;;12.00;100.00;96871.16;5028211;28;20524;-75
2022/09/19 09:53:23;;;;;;;0.20;0.20;;;;;;;12.08;100.00;96865.38;5013401;28;20082;-75
2022/09/19 09:56:24;;;;;;;0.20;0.20;;;;;;;11.47;100.00;96869.81;5014827;28;20351;-74
2022/09/19 09:58:53;;;;;;;0.20;0.20;;;;;;;11.82;100.00;96872.25;5008104;28;20223;-75
2022/09/19 10:04:52;;;;;;;0.20;0.20;;;;;;;12.54;100.00;96866.78;5035830;28;20743;-74
2022/09/19 10:07:58;;;;;;;0.20;0.20;;;;;;;12.65;100.00;96872.25;5020100;28;20045;-74
2022/09/19 10:10:26;;;;;;;0.20;0.20;;;;;;;13.00;100.00;96869.94;5005208;28;20051;-75
2022/09/19 10:12:59;;;;;;;0.20;0.20;;;;;;;13.72;100.00;96855.25;5012207;28;20051;-75
2022/09/19 10:15:26;;;;;;;0.20;0.20;;;;;;;13.28;100.00;96866.19;5020043;28;20533;-74
2022/09/19 10:18:06;;;;;;;0.13;0.10;;;;;;;12.84;100.00;96870.88;5020399;28;20387;-75
2022/09/19 10:20:49;;;;;;;0.20;0.20;;;;;;;12.38;100.00;96874.88;5003835;28;20057;-75
2022/09/19 10:23:30;;;;;;;0.10;0.10;;;;;;;12.37;100.00;96866.00;5010463;28;20542;-75
2022/09/19 10:26:04;;;;;;;0.15;0.15;;;;;;;13.14;100.00;96864.16;5004014;28;20139;-75
2022/09/19 10:28:41;;;;;;;0.10;0.10;;;;;;;14.23;100.00;96853.66;5035569;28;20136;-75
2022/09/19 10:31:38;;;;;;;0.20;0.20;;;;;;;13.52;100.00;96858.59;5011703;28;20037;-75
2022/09/19 10:34:32;;;;;;;0.10;0.10;;;;;;;13.63;100.00;96862.19;4999774;28;20270;-75
2022/09/19 10:37:03;;;;;;;0.13;0.13;;;;;;;13.86;100.00;96861.00;5036827;28;20491;-75
2022/09/19 10:39:43;;;;;;;0.10;0.10;;;;;;;13.61;100.00;96859.72;5000618;28;20419;-74
2022/09/19 10:42:26;;;;;;;0.10;0.10;;;;;;;13.01;100.00;96862.69;4686352;28;9999970;-75
2022/09/19 10:44:52;;;;;;;0.28;0.20;;;;;;;13.35;100.00;96855.22;4670142;28;10001304;-75
2022/09/19 10:47:18;;;;;;;0.10;0.10;;;;;;;14.44;100.00;96845.69;4980191;28;20045;-75
2022/09/19 10:50:01;;;;;;;0.20;0.20;;;;;;;13.41;100.00;96859.59;5029082;28;20032;-74
2022/09/19 10:52:49;;;;;;;0.20;0.20;;;;;;;14.02;100.00;96848.44;5028311;28;20737;-75
2022/09/19 10:55:20;;;;;;;0.20;0.20;;;;;;;14.28;100.00;96839.44;5015697;28;20049;-75
2022/09/19 10:57:57;;;;;;;0.10;0.10;;;;;;;14.33;100.00;96852.13;5017137;28;20025;-74
2022/09/19 11:00:31;;;;;;;0.20;0.10;;;;;;;13.70;100.00;96851.22;5034159;28;20462;-75
2022/09/19 11:03:16;;;;;;;0.10;0.10;;;;;;;14.79;100.00;96841.53;5033871;28;20428;-75
2022/09/19 11:05:42;;;;;;;0.20;0.20;;;;;;;19.78;97.40;96835.28;5017362;28;20128;-75
2022/09/19 11:08:24;;;;;;;0.25;0.25;;;;;;;18.76;94.21;96832.19;5019692;28;20061;-75
2022/09/19 11:10:52;;;;;;;0.10;0.10;;;;;;;19.67;88.20;96831.94;5035861;28;20120;-74
2022/09/19 11:13:29;;;;;;;0.30;0.20;;;;;;;18.51;98.24;96836.00;5038177;28;20029;-76
2022/09/19 11:15:57;;;;;;;0.10;0.10;;;;;;;16.84;100.00;96841.81;5022752;28;20034;-75
2022/09/19 11:19:16;;;;;;;0.10;0.10;;;;;;;19.39;83.41;96826.41;5024294;28;20055;-75
2022/09/19 11:22:07;;;;;;;0.10;0.10;;;;;;;16.16;100.00;96831.53;4936669;28;20098;-75
2022/09/19 11:24:53;;;;;;;0.10;0.10;;;;;;;18.86;90.67;96833.97;5032567;28;20075;-74
2022/09/19 11:27:37;;;;;;;0.10;0.10;;;;;;;18.63;89.32;96843.72;5013196;28;20033;-75
2022/09/19 11:30:24;;;;;;;0.10;0.10;;;;;;;20.18;74.97;96834.53;5030785;28;20068;-76
2022/09/19 11:33:24;;;;;;;0.10;0.10;;;;;;;17.73;93.77;96847.13;5014887;28;20128;-76
2022/09/19 11:36:30;;;;;;;0.10;0.10;;;;;;;19.27;81.08;96839.59;5025944;28;20033;-76
2022/09/19 11:39:19;;;;;;;0.20;0.20;;;;;;;21.75;70.71;96845.03;5035929;28;20045;-76
2022/09/19 11:42:08;;;;;;;0.20;0.20;;;;;;;26.07;45.51;96832.50;5019805;28;20427;-76
2022/09/19 11:45:02;;;;;;;0.20;0.20;;;;;;;26.32;40.67;96831.38;5017629;28;20051;-75
2022/09/19 11:48:05;;;;;;;0.20;0.20;;;;;;;27.73;38.71;96841.66;4980385;28;20040;-76
2022/09/19 11:51:11;;;;;;;0.10;0.10;;;;;;;26.54;40.38;96840.34;5018019;28;20125;-75
2022/09/19 11:54:17;;;;;;;0.10;0.10;;;;;;;28.43;36.76;96832.91;5017828;28;20083;-75
2022/09/19 11:56:53;;;;;;;0.20;0.20;;;;;;;27.35;38.21;96827.56;5034259;28;20108;-75
2022/09/19 11:59:39;;;;;;;0.00;0.00;;;;;;;24.27;39.94;96831.47;5018523;28;20040;-75
2022/09/19 12:02:20;;;;;;;0.10;0.10;;;;;;;22.42;46.88;96832.09;5033645;28;20045;-76
2022/09/19 12:05:17;;;;;;;0.10;0.10;;;;;;;19.40;71.10;96840.75;5033202;28;20041;-76
2022/09/19 12:07:57;;;;;;;0.10;0.10;;;;;;;18.31;81.92;96837.06;5016909;28;20095;-75
2022/09/19 12:10:35;;;;;;;0.10;0.10;;;;;;;18.08;87.86;96822.41;5005671;28;20514;-75
2022/09/19 12:13:16;;;;;;;0.20;0.20;;;;;;;21.92;63.69;96824.13;5006097;28;20037;-75
2022/09/19 12:15:58;;;;;;;0.15;0.10;;;;;;;23.18;48.12;96814.59;5024656;28;20029;-76
2022/09/19 12:18:28;;;;;;;0.10;0.10;;;;;;;23.72;47.55;96809.59;5025801;28;20044;-76
2022/09/19 12:21:00;;;;;;;0.10;0.10;;;;;;;20.49;62.21;96813.03;5025085;28;20025;-76
2022/09/19 12:26:34;;;;;;;0.10;0.10;;;;;;;21.33;63.51;96812.56;5007116;28;20361;-75
2022/09/19 12:29:17;;;;;;;0.35;0.20;;;;;;;25.02;44.74;96804.38;5007232;28;20029;-75